createdAt,value
2019-05-30T00:02:02.613Z,207.47
2019-05-30T00:04:31.090Z,203.13
2019-05-30T00:07:00.548Z,207.23
2019-05-30T00:09:29.129Z,205.57
2019-05-30T00:11:58.577Z,202.80
2019-05-30T00:14:27.458Z,200.23
2019-05-30T00:16:56.783Z,202.97
2019-05-30T00:19:25.507Z,198.63
2019-05-30T00:21:54.719Z,211.50
2019-05-30T00:24:24.279Z,197.00
2019-05-30T00:26:52.710Z,198.67
2019-05-30T00:29:21.255Z,200.13
2019-05-30T00:31:49.685Z,198.77
2019-05-30T00:34:18.101Z,195.80
2019-05-30T00:36:46.687Z,202.50
2019-05-30T00:39:15.111Z,199.57
2019-05-30T00:41:43.953Z,199.17
2019-05-30T00:44:12.434Z,207.23
2019-05-30T00:46:40.851Z,199.37
2019-05-30T00:49:09.358Z,201.03
2019-05-30T00:51:37.897Z,204.63
2019-05-30T00:54:06.992Z,206.63
2019-05-30T00:56:35.983Z,200.20
2019-05-30T00:59:04.890Z,204.70
2019-05-30T01:01:33.538Z,202.67
2019-05-30T01:04:02.877Z,199.77
2019-05-30T01:06:31.986Z,198.87
2019-05-30T01:09:01.200Z,197.07
2019-05-30T01:11:29.725Z,196.30
2019-05-30T01:13:58.981Z,194.23
2019-05-30T01:16:27.546Z,206.60
2019-05-30T01:18:56.939Z,197.03
2019-05-30T01:21:25.717Z,202.97
2019-05-30T01:23:54.152Z,195.37
2019-05-30T01:26:23.498Z,205.53
2019-05-30T01:28:52.050Z,193.63
2019-05-30T01:31:20.605Z,193.07
2019-05-30T01:33:49.170Z,194.80
2019-05-30T01:36:17.718Z,196.47
2019-05-30T01:38:46.131Z,188.90
2019-05-30T01:41:17.464Z,198.00
2019-05-30T01:43:44.743Z,201.03
2019-05-30T01:46:13.232Z,205.13
2019-05-30T01:48:41.639Z,206.03
2019-05-30T01:51:10.195Z,197.63
2019-05-30T01:53:38.796Z,197.97
2019-05-30T01:56:07.290Z,199.77
2019-05-30T01:58:35.849Z,207.73
2019-05-30T02:01:19.010Z,197.43
2019-05-30T02:03:34.471Z,204.40
2019-05-30T02:06:03.344Z,196.47
2019-05-30T02:08:32.077Z,204.30
2019-05-30T02:11:01.311Z,195.93
2019-05-30T02:13:29.921Z,197.07
2019-05-30T02:15:59.608Z,193.50
2019-05-30T02:18:28.116Z,198.33
2019-05-30T02:20:56.730Z,202.67
2019-05-30T02:23:25.292Z,195.20
2019-05-30T02:25:53.828Z,200.73
2019-05-30T02:28:23.340Z,200.43
2019-05-30T02:30:51.894Z,201.90
2019-05-30T02:33:20.463Z,201.53
2019-05-30T02:35:49.012Z,201.23
2019-05-30T02:38:17.501Z,197.70
2019-05-30T02:40:45.937Z,195.50
2019-05-30T02:43:14.582Z,194.40
2019-05-30T02:45:43.054Z,202.07
2019-05-30T02:48:12.174Z,200.67
2019-05-30T02:50:41.366Z,195.20
2019-05-30T02:53:10.906Z,203.60
2019-05-30T02:55:40.270Z,197.37
2019-05-30T02:58:10.500Z,198.73
2019-05-30T03:00:38.878Z,200.53
2019-05-30T03:03:11.163Z,198.57
2019-05-30T03:05:37.481Z,195.33
2019-05-30T03:08:07.187Z,201.67
2019-05-30T03:10:36.309Z,203.07
2019-05-30T03:13:06.498Z,201.07
2019-05-30T03:15:34.917Z,205.67
2019-05-30T03:18:04.829Z,193.07
2019-05-30T03:20:33.620Z,195.93
2019-05-30T03:23:03.223Z,196.10
2019-05-30T03:25:32.307Z,205.20
2019-05-30T03:28:02.603Z,196.53
2019-05-30T03:30:31.936Z,204.27
2019-05-30T03:33:07.194Z,197.90
2019-05-30T03:35:38.985Z,201.77
2019-05-30T03:38:00.681Z,198.47
2019-05-30T03:40:30.207Z,204.13
2019-05-30T03:42:59.293Z,201.87
2019-05-30T03:45:27.779Z,203.60
2019-05-30T03:47:59.404Z,196.90
2019-05-30T03:50:28.984Z,199.43
2019-05-30T03:52:57.477Z,201.10
2019-05-30T03:55:25.952Z,197.63
2019-05-30T03:58:14.469Z,200.00
2019-05-30T04:01:05.932Z,197.70
2019-05-30T04:03:54.346Z,199.00
2019-05-30T04:06:28.147Z,202.67
2019-05-30T04:09:00.128Z,206.33
2019-05-30T04:11:31.864Z,203.13
2019-05-30T04:14:00.357Z,204.77
2019-05-30T04:16:28.973Z,205.90
2019-05-30T04:18:57.387Z,199.00
2019-05-30T04:21:25.945Z,206.23
2019-05-30T04:23:54.426Z,209.23
2019-05-30T04:26:22.909Z,205.60
2019-05-30T04:28:51.336Z,204.63
2019-05-30T04:31:20.901Z,200.33
2019-05-30T04:33:49.390Z,195.37
2019-05-30T04:36:19.171Z,202.17
2019-05-30T04:38:48.127Z,196.60
2019-05-30T04:41:18.679Z,194.57
2019-05-30T04:43:46.688Z,194.57
2019-05-30T04:46:18.417Z,208.83
2019-05-30T04:48:45.342Z,197.87
2019-05-30T04:51:14.567Z,202.27
2019-05-30T04:53:43.785Z,193.03
2019-05-30T04:56:12.703Z,202.60
2019-05-30T04:58:42.770Z,191.10
2019-05-30T05:01:12.903Z,200.40
2019-05-30T05:03:46.221Z,211.83
2019-05-30T05:06:13.770Z,197.47
2019-05-30T05:08:42.552Z,202.53
2019-05-30T05:11:13.016Z,204.67
2019-05-30T05:13:41.079Z,214.40
2019-05-30T05:16:24.364Z,204.27
2019-05-30T05:18:39.721Z,211.90
2019-05-30T05:21:08.213Z,219.97
2019-05-30T05:23:36.778Z,211.53
2019-05-30T05:26:05.248Z,203.67
2019-05-30T05:28:33.733Z,208.60
2019-05-30T05:31:02.456Z,213.60
2019-05-30T05:33:31.994Z,213.80
2019-05-30T05:36:00.166Z,207.70
2019-05-30T05:38:28.785Z,217.07
2019-05-30T05:40:57.336Z,200.43
2019-05-30T05:43:25.975Z,205.47
2019-05-30T05:45:54.672Z,202.20
2019-05-30T05:48:22.935Z,209.83
2019-05-30T05:50:51.244Z,214.63
2019-05-30T05:53:20.880Z,210.07
2019-05-30T05:55:49.570Z,203.13
2019-05-30T05:58:18.995Z,200.40
2019-05-30T06:00:47.701Z,215.10
2019-05-30T06:03:16.912Z,211.37
2019-05-30T06:05:52.867Z,205.50
2019-05-30T06:08:17.382Z,206.67
2019-05-30T06:10:46.135Z,216.23
2019-05-30T06:13:14.626Z,215.30
2019-05-30T06:15:43.098Z,14.57
2019-05-30T06:18:11.580Z,17.47
2019-05-30T06:20:40.054Z,6.87
2019-05-30T06:23:08.671Z,15.30
2019-05-30T06:25:37.138Z,7.30
2019-05-30T06:28:05.623Z,10.33
2019-05-30T06:30:34.099Z,6.97
2019-05-30T06:33:02.504Z,8.17
2019-05-30T06:35:31.926Z,24.80
2019-05-30T06:38:00.534Z,9.33
2019-05-30T06:40:30.825Z,8.70
2019-05-30T06:42:59.196Z,9.87
2019-05-30T06:45:28.405Z,7.30
2019-05-30T06:47:57.062Z,7.57
2019-05-30T06:50:26.732Z,9.00
2019-05-30T06:52:55.360Z,8.03
2019-05-30T06:55:25.066Z,9.77
2019-05-30T06:57:53.627Z,6.30
2019-05-30T07:00:23.660Z,13.20
2019-05-30T07:02:52.301Z,8.53
2019-05-30T07:05:22.510Z,8.43
2019-05-30T07:07:51.511Z,4.20
2019-05-30T07:10:20.800Z,8.60
2019-05-30T07:12:49.350Z,9.70
2019-05-30T07:15:18.108Z,8.80
2019-05-30T07:17:46.659Z,10.27
2019-05-30T07:20:15.144Z,9.87
2019-05-30T07:22:44.745Z,6.97
2019-05-30T07:25:14.392Z,8.93
2019-05-30T07:27:42.809Z,9.53
2019-05-30T07:30:11.298Z,10.70
2019-05-30T07:32:39.781Z,10.00
2019-05-30T07:35:08.659Z,6.40
2019-05-30T07:37:38.235Z,9.87
2019-05-30T07:40:09.742Z,4.73
2019-05-30T07:42:38.308Z,4.27
2019-05-30T07:45:11.647Z,7.77
2019-05-30T07:47:40.128Z,10.33
2019-05-30T07:50:08.534Z,6.83
2019-05-30T07:52:37.004Z,10.03
2019-05-30T07:55:10.852Z,12.23
2019-05-30T07:57:41.190Z,7.63
2019-05-30T08:00:12.639Z,8.50
2019-05-30T08:02:41.104Z,3.90
2019-05-30T08:05:23.405Z,3.90
2019-05-30T08:07:39.759Z,8.47
2019-05-30T08:10:10.059Z,9.20
2019-05-30T08:12:38.538Z,5.63
2019-05-30T08:15:10.513Z,7.97
2019-05-30T08:17:38.921Z,5.20
2019-05-30T08:20:08.635Z,4.37
2019-05-30T08:22:38.315Z,1.50
2019-05-30T08:25:08.885Z,3.97
2019-05-30T08:27:38.531Z,3.33
2019-05-30T08:30:07.858Z,3.63
2019-05-30T08:32:36.963Z,2.53
2019-05-30T08:35:08.197Z,7.67
2019-05-30T08:37:37.252Z,4.70
2019-05-30T08:40:13.558Z,4.13
2019-05-30T08:42:42.026Z,2.13
2019-05-30T08:45:10.563Z,3.13
2019-05-30T08:47:40.441Z,2.30
2019-05-30T08:50:09.682Z,5.60
2019-05-30T08:52:38.649Z,3.60
2019-05-30T08:55:10.577Z,4.03
2019-05-30T08:57:39.046Z,5.97
2019-05-30T09:00:08.488Z,3.60
2019-05-30T09:02:36.966Z,5.33
2019-05-30T09:05:08.490Z,7.17
2019-05-30T09:07:38.092Z,5.40
2019-05-30T09:10:10.008Z,2.53
2019-05-30T09:12:40.050Z,2.47
2019-05-30T09:15:12.557Z,3.50
2019-05-30T09:17:42.460Z,4.43
2019-05-30T09:20:11.583Z,4.03
2019-05-30T09:22:41.545Z,7.27
2019-05-30T09:25:11.041Z,3.90
2019-05-30T09:27:40.734Z,3.33
2019-05-30T09:30:12.059Z,2.87
2019-05-30T09:32:41.288Z,3.77
2019-05-30T09:35:10.871Z,3.27
2019-05-30T09:37:40.513Z,3.40
2019-05-30T09:40:12.404Z,5.87
2019-05-30T09:42:44.186Z,3.73
2019-05-30T09:45:12.114Z,4.33
2019-05-30T09:47:41.938Z,2.40
2019-05-30T09:50:10.788Z,4.47
2019-05-30T09:52:39.339Z,3.03
2019-05-30T09:55:08.919Z,2.57
2019-05-30T09:57:37.564Z,2.40
2019-05-30T10:00:11.241Z,5.17
2019-05-30T10:02:39.836Z,5.27
2019-05-30T10:05:09.867Z,1.73
2019-05-30T10:07:38.448Z,9.70
2019-05-30T10:10:08.065Z,17.33
2019-05-30T10:12:36.629Z,5.37
2019-05-30T10:15:11.291Z,3.10
2019-05-30T10:17:40.133Z,8.43
2019-05-30T10:20:10.388Z,3.83
2019-05-30T10:22:38.907Z,8.73
2019-05-30T10:25:07.776Z,8.23
2019-05-30T10:27:36.398Z,10.93
2019-05-30T10:30:08.856Z,8.90
2019-05-30T10:32:37.486Z,21.30
2019-05-30T10:35:07.078Z,16.67
2019-05-30T10:37:35.576Z,10.93
2019-05-30T10:40:08.776Z,11.00
2019-05-30T10:42:37.338Z,9.10
2019-05-30T10:45:10.513Z,19.60
2019-05-30T10:47:39.264Z,11.50
2019-05-30T10:50:10.730Z,13.20
2019-05-30T10:52:39.228Z,3.83
2019-05-30T10:55:08.561Z,1.83
2019-05-30T10:57:37.084Z,8.50
2019-05-30T11:00:14.071Z,6.33
2019-05-30T11:02:42.661Z,2.40
2019-05-30T11:05:11.374Z,9.20
2019-05-30T11:08:05.541Z,9.33
2019-05-30T11:10:36.238Z,12.93
2019-05-30T11:13:06.449Z,9.33
2019-05-30T11:15:35.113Z,9.93
2019-05-30T11:18:03.707Z,5.87
2019-05-30T11:20:32.528Z,5.63
2019-05-30T11:23:01.120Z,5.37
2019-05-30T11:25:29.678Z,10.43
2019-05-30T11:27:58.948Z,7.57
2019-05-30T11:30:27.791Z,6.30
2019-05-30T11:32:57.282Z,6.87
2019-05-30T11:35:26.195Z,5.53
2019-05-30T11:37:55.217Z,3.80
2019-05-30T11:40:23.940Z,6.63
2019-05-30T11:42:53.370Z,5.17
2019-05-30T11:45:23.231Z,4.07
2019-05-30T11:47:51.847Z,4.50
2019-05-30T11:50:20.439Z,9.60
2019-05-30T11:52:49.820Z,11.60
2019-05-30T11:55:18.488Z,8.30
2019-05-30T11:57:47.133Z,9.43
2019-05-30T12:00:15.641Z,6.60
2019-05-30T12:02:44.143Z,8.47
2019-05-30T12:05:13.171Z,8.37
2019-05-30T12:07:41.678Z,5.17
2019-05-30T12:10:11.848Z,12.93
2019-05-30T12:12:40.427Z,12.43
2019-05-30T12:15:09.120Z,12.43
2019-05-30T12:17:37.710Z,6.77
2019-05-30T12:20:06.434Z,17.47
2019-05-30T12:22:35.099Z,9.53
2019-05-30T12:25:05.563Z,10.43
2019-05-30T12:27:34.125Z,5.03
2019-05-30T12:30:03.021Z,13.63
2019-05-30T12:32:31.599Z,8.93
2019-05-30T12:35:00.507Z,12.23
2019-05-30T12:37:29.484Z,10.63
2019-05-30T12:39:58.691Z,10.33
2019-05-30T12:42:27.538Z,8.03
2019-05-30T12:44:56.937Z,11.83
2019-05-30T12:47:26.624Z,7.07
2019-05-30T12:49:55.309Z,13.27
2019-05-30T12:52:23.753Z,15.60
2019-05-30T12:54:52.285Z,6.33
2019-05-30T12:57:20.879Z,4.40
2019-05-30T12:59:49.502Z,11.00
2019-05-30T13:02:18.084Z,10.03
2019-05-30T13:04:46.765Z,6.77
2019-05-30T13:07:15.250Z,6.00
2019-05-30T13:09:43.845Z,10.07
2019-05-30T13:12:12.458Z,7.03
2019-05-30T13:14:41.049Z,8.00
2019-05-30T13:17:09.619Z,4.97
2019-05-30T13:19:38.334Z,6.60
2019-05-30T13:22:07.702Z,242.93
2019-05-30T13:24:36.420Z,246.93
2019-05-30T13:27:05.960Z,251.97
2019-05-30T13:29:34.620Z,257.80
2019-05-30T13:32:03.146Z,225.43
2019-05-30T13:34:31.670Z,241.57
2019-05-30T13:37:00.965Z,10.13
2019-05-30T13:39:29.596Z,169.83
2019-05-30T13:41:59.321Z,92.10
2019-05-30T13:44:28.210Z,8.20
2019-05-30T13:46:56.733Z,12.33
2019-05-30T13:49:27.110Z,21.83
2019-05-30T13:51:55.627Z,15.27
2019-05-30T13:54:24.220Z,145.67
2019-05-30T13:56:52.838Z,13.53
2019-05-30T13:59:21.299Z,13.93
2019-05-30T14:01:49.741Z,11.93
2019-05-30T14:04:18.379Z,13.67
2019-05-30T14:06:47.003Z,15.47
2019-05-30T14:09:15.488Z,41.77
2019-05-30T14:11:43.966Z,156.70
2019-05-30T14:14:12.546Z,185.63
2019-05-30T14:16:41.059Z,19.80
2019-05-30T14:19:11.180Z,17.97
2019-05-30T14:21:39.956Z,21.47
2019-05-30T14:24:09.382Z,26.20
2019-05-30T14:26:38.163Z,26.33
2019-05-30T14:29:07.666Z,132.50
2019-05-30T14:31:36.420Z,213.23
2019-05-30T14:34:06.006Z,131.40
2019-05-30T14:36:34.604Z,13.50
2019-05-30T14:39:04.737Z,13.80
2019-05-30T14:41:33.492Z,82.33
2019-05-30T14:44:03.058Z,12.15
2019-05-30T14:46:31.654Z,48.60
2019-05-30T14:49:00.330Z,6.62
2019-05-30T14:51:29.847Z,180.67
2019-05-30T14:53:58.841Z,13.50
2019-05-30T14:56:27.508Z,14.23
2019-05-30T14:58:56.005Z,12.70
2019-05-30T15:01:24.688Z,30.43
2019-05-30T15:03:53.491Z,151.63
2019-05-30T15:06:21.948Z,174.77
2019-05-30T15:08:50.799Z,213.87
2019-05-30T15:11:19.541Z,26.00
2019-05-30T15:13:48.508Z,195.57
2019-05-30T15:16:17.406Z,224.60
2019-05-30T15:18:46.273Z,240.00
2019-05-30T15:21:14.858Z,179.93
2019-05-30T15:23:43.577Z,158.10
2019-05-30T15:26:12.251Z,28.55
2019-05-30T15:28:40.814Z,24.27
2019-05-30T15:31:10.282Z,21.07
2019-05-30T15:33:39.032Z,17.23
2019-05-30T15:36:08.574Z,17.52
2019-05-30T15:38:37.278Z,26.60
2019-05-30T15:41:06.915Z,17.92
2019-05-30T15:43:35.790Z,23.57
2019-05-30T15:46:04.482Z,180.50
2019-05-30T15:48:33.180Z,30.62
2019-05-30T15:51:01.682Z,26.85
2019-05-30T15:53:31.573Z,17.23
2019-05-30T15:56:00.312Z,32.53
2019-05-30T15:58:28.876Z,24.12
2019-05-30T16:00:57.570Z,20.27
2019-05-30T16:03:26.370Z,44.05
2019-05-30T16:05:54.847Z,19.90
2019-05-30T16:08:23.897Z,18.98
2019-05-30T16:10:52.522Z,28.32
2019-05-30T16:13:21.573Z,15.20
2019-05-30T16:15:50.331Z,29.52
2019-05-30T16:18:19.871Z,15.90
2019-05-30T16:20:48.530Z,18.90
2019-05-30T16:23:18.708Z,101.72
2019-05-30T16:25:47.578Z,184.60
2019-05-30T16:28:16.147Z,35.98
2019-05-30T16:30:44.737Z,88.72
2019-05-30T16:33:13.966Z,202.80
2019-05-30T16:35:43.012Z,4.53
2019-05-30T16:38:11.768Z,7.83
2019-05-30T16:40:40.463Z,21.17
2019-05-30T16:43:08.953Z,16.00
2019-05-30T16:45:37.545Z,15.05
2019-05-30T16:48:06.204Z,11.78
2019-05-30T16:50:34.918Z,14.03
2019-05-30T16:53:03.596Z,13.20
2019-05-30T16:55:33.453Z,12.05
2019-05-30T16:58:02.246Z,13.08
2019-05-30T17:00:30.937Z,9.55
2019-05-30T17:02:59.634Z,10.32
2019-05-30T17:05:28.221Z,16.90
2019-05-30T17:07:56.991Z,16.02
2019-05-30T17:10:31.060Z,28.90
2019-05-30T17:12:55.900Z,164.28
2019-05-30T17:15:24.531Z,262.48
2019-05-30T17:17:53.222Z,260.73
2019-05-30T17:20:22.559Z,249.45
2019-05-30T17:22:51.329Z,257.23
2019-05-30T17:25:20.935Z,257.90
2019-05-30T17:27:49.536Z,250.18
2019-05-30T17:30:19.504Z,247.40
2019-05-30T17:32:48.463Z,126.47
2019-05-30T17:35:17.931Z,256.07
2019-05-30T17:37:46.630Z,233.13
2019-05-30T17:40:15.370Z,252.47
2019-05-30T17:42:43.850Z,70.70
2019-05-30T17:45:12.441Z,17.35
2019-05-30T17:47:41.669Z,17.62
2019-05-30T17:50:13.468Z,12.88
2019-05-30T17:52:42.221Z,16.57
2019-05-30T17:55:13.443Z,14.55
2019-05-30T17:57:43.390Z,10.82
2019-05-30T18:00:13.759Z,14.65
2019-05-30T18:02:42.489Z,13.68
2019-05-30T18:05:11.076Z,21.45
2019-05-30T18:07:39.774Z,15.97
2019-05-30T18:12:36.141Z,17.50
2019-05-30T18:15:12.744Z,17.23
2019-05-30T18:17:41.619Z,21.55
2019-05-30T18:20:12.179Z,16.20
2019-05-30T18:22:40.877Z,17.73
2019-05-30T18:25:12.130Z,18.12
2019-05-30T18:27:40.733Z,17.83
2019-05-30T18:30:11.313Z,21.40
2019-05-30T18:32:40.350Z,22.07
2019-05-30T18:35:11.810Z,20.03
2019-05-30T18:37:41.027Z,21.93
2019-05-30T18:40:12.661Z,16.37
2019-05-30T18:42:41.439Z,16.60
2019-05-30T18:45:13.249Z,10.33
2019-05-30T18:47:42.048Z,19.63
2019-05-30T18:50:11.043Z,17.53
2019-05-30T18:52:39.823Z,16.90
2019-05-30T18:55:11.014Z,10.37
2019-05-30T18:57:39.597Z,22.77
2019-05-30T19:00:10.360Z,57.87
2019-05-30T19:02:39.641Z,82.57
2019-05-30T19:05:08.945Z,105.37
2019-05-30T19:07:39.197Z,97.23
2019-05-30T19:10:07.854Z,76.83
2019-05-30T19:12:36.605Z,116.93
2019-05-30T19:15:06.613Z,157.83
2019-05-30T19:17:35.974Z,128.70
2019-05-30T19:20:06.694Z,52.13
2019-05-30T19:22:36.392Z,188.03
2019-05-30T19:25:07.990Z,138.97
2019-05-30T19:27:38.308Z,162.27
2019-05-30T19:30:08.916Z,63.13
2019-05-30T19:32:37.625Z,29.60
2019-05-30T19:35:10.594Z,99.20
2019-05-30T19:37:39.479Z,15.50
2019-05-30T19:40:08.388Z,10.97
2019-05-30T19:42:37.914Z,70.07
2019-05-30T19:45:08.106Z,17.23
2019-05-30T19:47:37.083Z,13.47
2019-05-30T19:50:07.136Z,222.27
2019-05-30T19:52:36.882Z,13.53
2019-05-30T19:55:07.701Z,201.13
2019-05-30T19:57:37.658Z,197.67
2019-05-30T20:00:07.002Z,210.80
2019-05-30T20:02:36.608Z,209.00
2019-05-30T20:05:10.735Z,213.53
2019-05-30T20:07:39.277Z,210.33
2019-05-30T20:10:09.065Z,212.07
2019-05-30T20:12:38.922Z,141.23
2019-05-30T20:15:12.487Z,181.43
2019-05-30T20:17:41.871Z,186.80
2019-05-30T20:20:10.899Z,197.53
2019-05-30T20:22:40.182Z,215.20
2019-05-30T20:25:09.427Z,205.33
2019-05-30T20:27:38.997Z,208.73
2019-05-30T20:30:09.879Z,199.50
2019-05-30T20:32:38.887Z,206.17
2019-05-30T20:35:07.518Z,215.90
2019-05-30T20:37:36.745Z,220.90
2019-05-30T20:40:10.506Z,211.70
2019-05-30T20:42:39.167Z,215.70
2019-05-30T20:45:10.076Z,202.77
2019-05-30T20:47:39.343Z,205.63
2019-05-30T20:50:08.622Z,203.33
2019-05-30T20:52:40.346Z,195.30
2019-05-30T20:55:08.598Z,198.90
2019-05-30T20:57:38.269Z,217.53
2019-05-30T21:00:09.464Z,204.57
2019-05-30T21:02:40.878Z,194.50
2019-05-30T21:05:10.177Z,191.17
2019-05-30T21:07:38.379Z,192.27
2019-05-30T21:10:07.165Z,11.97
2019-05-30T21:12:39.264Z,172.20
2019-05-30T21:15:08.047Z,179.73
2019-05-30T21:17:37.768Z,23.20
2019-05-30T21:20:11.487Z,15.50
2019-05-30T21:22:38.154Z,53.07
2019-05-30T21:25:12.762Z,209.40
2019-05-30T21:27:41.326Z,207.30
2019-05-30T21:30:11.471Z,194.30
2019-05-30T21:32:41.403Z,198.60
2019-05-30T21:35:10.184Z,207.80
2019-05-30T21:37:39.660Z,199.43
2019-05-30T21:40:10.058Z,189.23
2019-05-30T21:42:56.808Z,194.90
2019-05-30T21:45:08.975Z,201.93
2019-05-30T21:47:38.681Z,210.10
2019-05-30T21:50:07.758Z,197.87
2019-05-30T21:52:36.267Z,207.00
2019-05-30T21:55:06.635Z,198.17
2019-05-30T21:57:35.143Z,204.63
2019-05-30T22:00:05.835Z,207.70
2019-05-30T22:02:34.457Z,212.47
2019-05-30T22:05:03.017Z,222.37
2019-05-30T22:07:32.499Z,253.50
2019-05-30T22:10:01.451Z,222.50
2019-05-30T22:12:30.097Z,214.07
2019-05-30T22:14:58.894Z,218.77
2019-05-30T22:17:27.378Z,204.13
2019-05-30T22:19:55.931Z,184.27
2019-05-30T22:22:24.429Z,212.37
2019-05-30T22:24:52.978Z,197.60
2019-05-30T22:27:21.469Z,199.30
2019-05-30T22:29:50.568Z,211.47
2019-05-30T22:32:19.540Z,209.73
2019-05-30T22:34:48.798Z,197.63
2019-05-30T22:37:17.354Z,207.13
2019-05-30T22:39:46.800Z,127.47
2019-05-30T22:42:15.441Z,196.73
2019-05-30T22:44:44.039Z,162.50
2019-05-30T22:47:12.472Z,160.97
2019-05-30T22:49:41.038Z,139.10
2019-05-30T22:52:09.549Z,69.17
2019-05-30T22:54:38.010Z,83.83
2019-05-30T22:57:06.425Z,112.00
2019-05-30T22:59:34.930Z,145.00
2019-05-30T23:02:03.574Z,122.47
2019-05-30T23:04:32.059Z,115.47
2019-05-30T23:07:00.555Z,123.93
2019-05-30T23:09:30.195Z,69.00
2019-05-30T23:11:58.684Z,53.03
2019-05-30T23:14:27.086Z,90.57
2019-05-30T23:16:56.463Z,108.43
2019-05-30T23:19:24.953Z,108.50
2019-05-30T23:21:53.505Z,140.00
2019-05-30T23:24:21.988Z,135.90
2019-05-30T23:26:51.614Z,132.83
2019-05-30T23:29:20.191Z,57.63
2019-05-30T23:31:49.674Z,79.97
2019-05-30T23:34:18.472Z,91.20
2019-05-30T23:36:46.882Z,135.83
2019-05-30T23:39:15.441Z,147.17
2019-05-30T23:41:43.856Z,162.43
2019-05-30T23:44:12.445Z,146.67
2019-05-30T23:46:41.062Z,123.30
2019-05-30T23:49:09.524Z,151.37
2019-05-30T23:51:37.939Z,112.00
2019-05-30T23:54:06.415Z,125.20
2019-05-30T23:56:35.256Z,137.37
2019-05-30T23:59:03.650Z,115.60
